createdAt,value
2022-11-16T00:00:18.150Z,13.73
2022-11-16T00:05:24.200Z,16.30
2022-11-16T00:10:28.880Z,17.35
2022-11-16T00:15:30.564Z,15.25
2022-11-16T00:20:32.175Z,17.58
2022-11-16T00:25:33.841Z,15.35
2022-11-16T00:30:35.507Z,13.88
2022-11-16T00:35:40.337Z,12.45
2022-11-16T00:40:41.958Z,13.18
2022-11-16T00:45:44.211Z,14.93
2022-11-16T00:50:46.209Z,12.95
2022-11-16T00:55:48.902Z,14.80
2022-11-16T01:00:52.948Z,15.18
2022-11-16T01:06:03.601Z,13.30
2022-11-16T01:11:24.756Z,18.15
2022-11-16T01:16:26.420Z,12.80
2022-11-16T01:21:28.035Z,12.90
2022-11-16T01:26:29.750Z,15.13
2022-11-16T01:31:31.428Z,12.50
2022-11-16T01:36:36.809Z,12.98
2022-11-16T01:41:40.624Z,15.57
2022-11-16T01:46:42.447Z,14.48
2022-11-16T01:51:51.761Z,14.38
2022-11-16T01:56:56.070Z,15.95
2022-11-16T02:02:08.909Z,14.35
2022-11-16T02:07:19.768Z,14.18
2022-11-16T02:12:42.171Z,11.73
2022-11-16T02:17:56.884Z,13.05
2022-11-16T02:23:07.737Z,14.95
2022-11-16T02:28:57.234Z,15.45
2022-11-16T02:33:59.507Z,12.45
2022-11-16T02:39:05.196Z,13.40
2022-11-16T02:44:13.259Z,16.38
2022-11-16T02:49:18.566Z,15.98
2022-11-16T02:54:21.809Z,17.95
2022-11-16T02:59:30.570Z,14.48
2022-11-16T03:04:37.556Z,15.60
2022-11-16T03:09:41.872Z,14.35
2022-11-16T03:14:59.532Z,17.15
2022-11-16T03:20:05.511Z,13.98
2022-11-16T03:25:12.182Z,14.75
2022-11-16T03:30:21.126Z,14.30
2022-11-16T03:35:38.244Z,13.18
2022-11-16T03:40:41.245Z,12.48
2022-11-16T03:45:43.435Z,11.80
2022-11-16T03:50:45.957Z,9.75
2022-11-16T03:55:50.066Z,10.32
2022-11-16T04:00:53.251Z,14.23
2022-11-16T04:06:13.858Z,9.65
2022-11-16T04:11:36.020Z,11.10
2022-11-16T04:16:56.470Z,10.75
2022-11-16T04:22:32.484Z,11.93
2022-11-16T04:27:52.646Z,10.25
2022-11-16T04:33:13.177Z,11.65
2022-11-16T04:38:14.989Z,10.43
2022-11-16T04:43:17.838Z,11.77
2022-11-16T04:48:20.722Z,8.75
2022-11-16T04:53:27.927Z,9.68
2022-11-16T04:58:47.878Z,10.90
2022-11-16T05:03:50.566Z,10.93
2022-11-16T05:08:53.029Z,7.45
2022-11-16T05:13:54.916Z,10.15
2022-11-16T05:19:15.448Z,9.40
2022-11-16T05:24:35.472Z,10.13
2022-11-16T05:29:39.012Z,11.32
2022-11-16T05:34:40.833Z,8.15
2022-11-16T05:39:42.865Z,10.18
2022-11-16T05:44:45.068Z,8.32
2022-11-16T05:49:47.018Z,9.85
2022-11-16T05:54:49.291Z,10.02
2022-11-16T05:59:51.353Z,8.63
2022-11-16T06:04:53.308Z,8.68
2022-11-16T06:09:56.022Z,9.63
2022-11-16T06:14:57.837Z,9.75
2022-11-16T06:19:59.781Z,8.77
2022-11-16T06:25:01.931Z,8.85
2022-11-16T06:30:04.732Z,7.05
2022-11-16T06:35:08.982Z,8.48
2022-11-16T06:40:12.231Z,9.15
2022-11-16T06:45:17.570Z,8.32
2022-11-16T06:50:25.393Z,8.50
2022-11-16T06:55:28.953Z,9.55
2022-11-16T07:00:30.791Z,6.80
2022-11-16T07:05:33.276Z,11.57
2022-11-16T07:10:36.104Z,12.55
2022-11-16T07:15:38.628Z,9.63
2022-11-16T07:20:40.713Z,9.70
2022-11-16T07:25:46.728Z,8.90
2022-11-16T07:30:54.688Z,11.75
2022-11-16T07:36:03.931Z,9.13
2022-11-16T07:41:10.792Z,9.18
2022-11-16T07:51:45.661Z,10.73
2022-11-16T07:57:04.466Z,8.25
2022-11-16T08:02:06.487Z,9.25
2022-11-16T08:07:08.670Z,11.75
2022-11-16T08:12:17.201Z,12.13
2022-11-16T08:17:19.259Z,8.80
2022-11-16T08:22:21.199Z,9.55
2022-11-16T08:27:23.916Z,8.40
2022-11-16T08:32:29.764Z,9.07
2022-11-16T08:37:34.759Z,9.07
2022-11-16T08:42:43.258Z,11.13
2022-11-16T08:47:46.039Z,9.52
2022-11-16T08:52:48.106Z,8.25
2022-11-16T08:57:50.037Z,10.93
2022-11-16T09:02:53.525Z,11.48
2022-11-16T09:07:55.153Z,10.82
2022-11-16T09:12:56.883Z,8.80
2022-11-16T09:17:58.573Z,8.02
2022-11-16T09:23:00.210Z,8.02
2022-11-16T09:28:01.840Z,9.75
2022-11-16T09:33:03.588Z,9.65
2022-11-16T09:38:06.007Z,7.88
2022-11-16T09:43:13.667Z,8.35
2022-11-16T09:48:16.994Z,9.18
2022-11-16T09:53:38.634Z,10.25
2022-11-16T09:59:00.243Z,7.75
2022-11-16T10:04:11.765Z,10.50
2022-11-16T10:09:13.548Z,8.52
2022-11-16T10:14:33.862Z,9.30
2022-11-16T10:19:46.718Z,7.97
2022-11-16T10:24:58.259Z,8.27
2022-11-16T10:30:16.538Z,7.43
2022-11-16T10:35:26.116Z,9.32
2022-11-16T10:40:30.572Z,6.50
2022-11-16T10:45:39.854Z,7.03
2022-11-16T10:50:45.161Z,8.07
2022-11-16T10:55:59.596Z,5.95
2022-11-16T11:01:01.309Z,6.47
2022-11-16T11:06:03.189Z,6.80
2022-11-16T11:11:24.749Z,5.78
2022-11-16T11:16:27.418Z,6.43
2022-11-16T11:21:29.128Z,6.53
2022-11-16T11:26:39.066Z,4.47
2022-11-16T11:31:55.516Z,4.70
2022-11-16T11:37:01.081Z,5.18
2022-11-16T11:42:14.507Z,4.55
2022-11-16T11:47:57.266Z,5.35
2022-11-16T11:53:08.256Z,4.50
2022-11-16T11:58:16.999Z,3.55
2022-11-16T12:03:49.372Z,4.40
2022-11-16T12:08:59.867Z,4.00
2022-11-16T12:14:20.116Z,4.57
2022-11-16T12:19:24.407Z,4.30
2022-11-16T12:24:53.000Z,3.05
2022-11-16T12:30:08.031Z,4.15
2022-11-16T12:35:48.771Z,3.92
2022-11-16T12:41:06.403Z,4.55
2022-11-16T12:46:29.341Z,4.50
2022-11-16T12:51:37.334Z,3.88
2022-11-16T12:56:48.869Z,4.32
2022-11-16T13:02:21.319Z,3.50
2022-11-16T13:07:48.636Z,4.90
2022-11-16T13:13:09.112Z,3.67
2022-11-16T13:18:17.680Z,4.30
2022-11-16T13:23:31.789Z,3.13
2022-11-16T13:29:14.791Z,3.97
2022-11-16T13:34:29.085Z,4.47
2022-11-16T13:39:58.745Z,4.65
2022-11-16T13:45:18.538Z,5.75
2022-11-16T13:50:23.145Z,4.63
2022-11-16T13:55:30.544Z,6.13
2022-11-16T14:00:59.862Z,6.47
2022-11-16T14:06:01.580Z,5.95
2022-11-16T14:11:03.631Z,7.57
2022-11-16T14:16:20.448Z,7.55
2022-11-16T14:21:48.850Z,7.60
2022-11-16T14:27:18.663Z,7.90
2022-11-16T14:32:43.503Z,9.48
2022-11-16T14:37:45.139Z,11.55
2022-11-16T14:43:20.211Z,9.15
2022-11-16T14:48:22.863Z,10.65
2022-11-16T14:53:25.190Z,8.65
2022-11-16T14:58:26.793Z,11.13
2022-11-16T15:03:31.560Z,12.00
2022-11-16T15:08:44.640Z,10.93
2022-11-16T15:13:47.402Z,11.05
2022-11-16T15:18:59.998Z,11.18
2022-11-16T15:24:28.907Z,12.80
2022-11-16T15:29:24.433Z,11.07
2022-11-16T15:34:26.150Z,13.32
2022-11-16T15:39:32.267Z,15.05
2022-11-16T15:44:34.003Z,11.85
2022-11-16T15:49:37.830Z,13.52
2022-11-16T15:54:58.161Z,13.20
2022-11-16T15:59:59.866Z,18.90
2022-11-16T16:05:01.466Z,15.40
2022-11-16T16:10:13.944Z,16.35
2022-11-16T16:15:25.611Z,14.15
2022-11-16T16:20:31.439Z,15.70
2022-11-16T16:25:34.508Z,16.20
2022-11-16T16:30:36.152Z,20.10
2022-11-16T16:35:37.768Z,14.95
2022-11-16T16:40:39.438Z,16.17
2022-11-16T16:45:43.528Z,18.00
2022-11-16T16:50:45.250Z,15.43
2022-11-16T16:55:50.031Z,14.52
2022-11-16T17:00:55.687Z,15.73
2022-11-16T17:06:01.893Z,17.20
2022-11-16T17:11:04.270Z,17.48
2022-11-16T17:16:06.178Z,16.30
2022-11-16T17:21:09.307Z,15.75
2022-11-16T17:26:10.965Z,18.23
2022-11-16T17:31:12.824Z,18.00
2022-11-16T17:36:14.445Z,17.48
2022-11-16T17:41:18.303Z,15.60
2022-11-16T17:46:21.750Z,20.90
2022-11-16T17:51:24.874Z,18.80
2022-11-16T17:56:27.668Z,19.50
2022-11-16T18:01:29.659Z,16.30
2022-11-16T18:06:32.444Z,17.80
2022-11-16T18:11:34.089Z,19.23
2022-11-16T18:16:36.176Z,22.10
2022-11-16T18:21:41.605Z,25.73
2022-11-16T18:26:43.303Z,28.10
2022-11-16T18:31:44.975Z,17.10
2022-11-16T18:36:48.894Z,16.58
2022-11-16T18:41:55.004Z,12.40
2022-11-16T18:46:57.116Z,12.00
2022-11-16T18:51:58.733Z,11.02
2022-11-16T18:57:00.401Z,10.57
2022-11-16T19:02:02.084Z,11.23
2022-11-16T19:07:03.732Z,9.77
2022-11-16T19:12:06.269Z,30.27
2022-11-16T19:17:08.034Z,9.10
2022-11-16T19:22:09.647Z,10.13
2022-11-16T19:27:12.274Z,7.30
2022-11-16T19:32:14.020Z,7.22
2022-11-16T19:37:15.699Z,6.40
2022-11-16T19:42:17.327Z,6.55
2022-11-16T19:47:19.043Z,5.65
2022-11-16T19:52:20.683Z,4.43
2022-11-16T19:57:22.338Z,6.15
2022-11-16T20:02:24.025Z,5.30
2022-11-16T20:07:25.688Z,4.65
2022-11-16T20:12:27.348Z,5.65
2022-11-16T20:17:28.959Z,5.45
2022-11-16T20:22:30.603Z,5.28
2022-11-16T20:27:32.221Z,6.15
2022-11-16T20:32:33.887Z,5.22
2022-11-16T20:37:36.945Z,4.05
2022-11-16T20:42:38.553Z,5.05
2022-11-16T20:47:40.141Z,4.22
2022-11-16T20:52:43.691Z,7.32
2022-11-16T20:57:47.701Z,5.05
2022-11-16T21:02:49.587Z,5.15
2022-11-16T21:07:51.180Z,4.18
2022-11-16T21:13:11.101Z,4.03
2022-11-16T21:18:12.741Z,4.50
2022-11-16T21:23:14.379Z,5.85
2022-11-16T21:28:20.175Z,5.03
2022-11-16T21:33:26.129Z,7.90
2022-11-16T21:38:27.748Z,4.97
2022-11-16T21:43:29.359Z,5.28
2022-11-16T21:48:33.172Z,4.70
2022-11-16T21:53:35.605Z,5.68
2022-11-16T21:58:39.094Z,5.60
2022-11-16T22:03:40.834Z,6.10
2022-11-16T22:08:42.987Z,5.38
2022-11-16T22:13:44.664Z,5.78
2022-11-16T22:18:46.352Z,5.43
2022-11-16T22:23:47.963Z,6.70
2022-11-16T22:28:49.833Z,5.28
2022-11-16T22:33:53.550Z,5.40
2022-11-16T22:38:57.127Z,5.32
2022-11-16T22:43:58.902Z,5.80
2022-11-16T22:49:00.803Z,5.80
2022-11-16T22:54:04.369Z,6.22
2022-11-16T22:59:06.297Z,7.95
2022-11-16T23:04:08.190Z,4.80
2022-11-16T23:09:09.832Z,6.75
2022-11-16T23:14:33.028Z,5.88
2022-11-16T23:19:53.304Z,5.30
2022-11-16T23:25:13.479Z,5.43
2022-11-16T23:30:15.121Z,5.55
2022-11-16T23:35:17.017Z,6.78
2022-11-16T23:40:18.667Z,6.43
2022-11-16T23:45:20.488Z,6.25
2022-11-16T23:50:22.144Z,7.55
2022-11-16T23:55:23.926Z,6.68
